createdAt,value
2019-04-23T00:00:17.084Z,69.90
2019-04-23T00:02:58.599Z,70.20
2019-04-23T00:05:17.009Z,70.10
2019-04-23T00:07:49.797Z,70.10
2019-04-23T00:10:19.547Z,71.00
2019-04-23T00:12:49.624Z,70.40
2019-04-23T00:15:37.793Z,70.70
2019-04-23T00:17:50.265Z,70.90
2019-04-23T00:22:53.353Z,70.90
2019-04-23T00:28:06.610Z,71.00
2019-04-23T00:30:44.281Z,71.10
2019-04-23T00:33:08.637Z,71.40
2019-04-23T00:35:38.923Z,72.20
2019-04-23T00:38:12.084Z,71.40
2019-04-23T00:40:39.044Z,71.70
2019-04-23T00:43:09.146Z,71.80
2019-04-23T00:45:47.344Z,72.30
2019-04-23T00:48:15.419Z,71.90
2019-04-23T00:50:44.765Z,71.90
2019-04-23T00:53:12.657Z,71.70
2019-04-23T00:55:42.714Z,71.90
2019-04-23T00:58:22.161Z,72.20
2019-04-23T01:03:11.855Z,72.20
2019-04-23T01:05:45.447Z,72.70
2019-04-23T01:08:12.841Z,72.70
2019-04-23T01:10:45.977Z,72.90
2019-04-23T01:13:14.991Z,72.70
2019-04-23T01:15:46.488Z,72.70
2019-04-23T01:18:18.454Z,73.30
2019-04-23T01:20:50.262Z,73.50
2019-04-23T01:23:03.118Z,73.70
2019-04-23T01:25:48.337Z,73.90
2019-04-23T01:28:36.738Z,75.30
2019-04-23T01:33:40.766Z,75.00
2019-04-23T01:36:16.215Z,75.20
2019-04-23T01:41:00.314Z,75.30
2019-04-23T01:43:38.476Z,75.90
2019-04-23T01:46:01.024Z,76.10
2019-04-23T01:48:39.217Z,76.20
2019-04-23T01:51:24.539Z,76.90
2019-04-23T01:56:06.112Z,77.20
2019-04-23T02:01:07.284Z,77.30
2019-04-23T02:03:34.832Z,77.60
2019-04-23T02:06:08.692Z,77.80
2019-04-23T02:08:32.282Z,78.10
2019-04-23T02:11:22.582Z,78.40
2019-04-23T02:13:38.349Z,78.40
2019-04-23T02:16:04.330Z,78.60
2019-04-23T02:18:35.922Z,79.00
2019-04-23T02:21:10.770Z,79.60
2019-04-23T02:23:57.168Z,79.40
2019-04-23T02:26:26.146Z,79.90
2019-04-23T02:36:27.666Z,81.20
2019-04-23T02:41:26.650Z,81.30
2019-04-23T02:44:01.226Z,81.50
2019-04-23T02:46:13.659Z,81.80
2019-04-23T02:48:56.311Z,82.20
2019-04-23T02:51:29.093Z,82.50
2019-04-23T02:56:39.548Z,82.80
2019-04-23T02:59:01.876Z,82.90
2019-04-23T03:01:25.553Z,83.00
2019-04-23T03:04:01.902Z,83.30
2019-04-23T03:06:31.782Z,83.60
2019-04-23T03:09:05.182Z,83.70
2019-04-23T03:14:01.070Z,83.60
2019-04-23T03:16:42.952Z,83.30
2019-04-23T03:24:38.988Z,84.50
2019-04-23T03:39:25.542Z,86.40
2019-04-23T03:41:53.527Z,86.30
2019-04-23T03:44:20.625Z,86.60
2019-04-23T03:49:19.490Z,87.60
2019-04-23T03:52:07.575Z,87.60
2019-04-23T03:54:32.005Z,87.70
2019-04-23T03:57:03.206Z,87.80
2019-04-23T04:02:20.624Z,87.90
2019-04-23T04:04:24.785Z,87.80
2019-04-23T04:07:08.493Z,88.20
2019-04-23T04:09:43.027Z,88.50
2019-04-23T04:11:52.225Z,88.20
2019-04-23T04:14:31.676Z,88.30
2019-04-23T04:19:33.455Z,88.10
2019-04-23T04:21:58.575Z,87.80
2019-04-23T04:24:27.629Z,87.70
2019-04-23T04:26:59.629Z,87.40
2019-04-23T04:29:30.113Z,87.60
2019-04-23T04:39:26.690Z,86.90
2019-04-23T04:46:58.752Z,86.70
2019-04-23T04:49:33.607Z,86.60
2019-04-23T04:52:11.636Z,86.70
2019-04-23T04:54:22.561Z,86.20
2019-04-23T04:59:25.891Z,86.00
2019-04-23T05:02:11.758Z,86.20
2019-04-23T05:04:48.195Z,86.00
2019-04-23T05:09:32.667Z,85.40
2019-04-23T05:12:01.135Z,84.80
2019-04-23T05:17:04.833Z,84.00
2019-04-23T05:24:35.285Z,83.10
2019-04-23T05:27:02.913Z,82.80
2019-04-23T05:29:41.460Z,82.40
2019-04-23T05:32:00.257Z,82.20
2019-04-23T05:34:38.647Z,81.90
2019-04-23T05:39:35.397Z,81.30
2019-04-23T05:42:04.428Z,81.30
2019-04-23T05:44:38.260Z,81.00
2019-04-23T05:47:11.828Z,81.30
2019-04-23T05:49:43.871Z,81.50
2019-04-23T05:57:01.713Z,81.40
2019-04-23T05:59:34.385Z,80.60
2019-04-23T06:02:20.369Z,80.80
2019-04-23T06:04:35.814Z,79.70
2019-04-23T06:07:35.795Z,79.50
2019-04-23T06:09:53.231Z,79.50
2019-04-23T06:12:22.066Z,79.40
2019-04-23T06:14:39.069Z,78.80
2019-04-23T06:17:09.281Z,78.90
2019-04-23T06:19:38.154Z,78.60
2019-04-23T06:22:15.425Z,78.60
2019-04-23T06:27:13.558Z,77.10
2019-04-23T06:29:41.553Z,78.70
2019-04-23T06:32:07.978Z,78.00
2019-04-23T06:34:43.599Z,78.00
2019-04-23T06:37:09.678Z,77.40
2019-04-23T06:39:57.049Z,77.40
2019-04-23T06:42:08.073Z,77.30
2019-04-23T06:44:45.723Z,78.00
2019-04-23T06:47:16.747Z,77.70
2019-04-23T06:52:19.216Z,77.20
2019-04-23T06:54:47.786Z,77.50
2019-04-23T06:57:16.286Z,77.20
2019-04-23T06:59:59.220Z,76.40
2019-04-23T07:02:33.798Z,75.20
2019-04-23T07:04:57.202Z,75.10
2019-04-23T07:09:52.385Z,73.70
2019-04-23T07:12:25.568Z,73.70
2019-04-23T07:17:18.479Z,72.40
2019-04-23T07:19:56.575Z,73.30
2019-04-23T07:22:23.850Z,72.80
2019-04-23T07:24:54.543Z,72.40
2019-04-23T07:27:26.282Z,71.60
2019-04-23T07:30:03.605Z,71.30
2019-04-23T07:32:23.054Z,71.80
2019-04-23T07:35:02.479Z,71.70
2019-04-23T07:37:24.987Z,71.20
2019-04-23T07:40:18.046Z,70.70
2019-04-23T07:42:37.229Z,71.30
2019-04-23T07:45:12.394Z,69.70
2019-04-23T07:47:43.565Z,70.20
2019-04-23T07:50:23.383Z,69.40
2019-04-23T07:52:51.355Z,68.90
2019-04-23T07:55:23.645Z,69.90
2019-04-23T07:57:49.328Z,69.50
2019-04-23T08:00:20.987Z,69.70
2019-04-23T08:02:44.066Z,69.70
2019-04-23T08:05:22.591Z,69.40
2019-04-23T08:07:53.048Z,69.10
2019-04-23T08:10:15.311Z,69.30
2019-04-23T08:12:46.958Z,67.70
2019-04-23T08:15:18.133Z,67.70
2019-04-23T08:17:43.491Z,66.40
2019-04-23T08:20:19.476Z,65.20
2019-04-23T08:22:45.747Z,65.30
2019-04-23T08:25:17.821Z,64.60
2019-04-23T08:27:51.506Z,64.30
2019-04-23T08:30:17.984Z,64.10
2019-04-23T08:32:52.575Z,64.10
2019-04-23T08:35:28.489Z,64.70
2019-04-23T08:38:02.769Z,64.40
2019-04-23T08:40:25.245Z,65.00
2019-04-23T08:42:52.934Z,65.50
2019-04-23T08:48:07.640Z,65.60
2019-04-23T08:53:18.240Z,65.60
2019-04-23T08:55:43.030Z,64.30
2019-04-23T08:58:07.150Z,64.30
2019-04-23T09:00:45.483Z,63.70
2019-04-23T09:03:12.845Z,64.40
2019-04-23T09:05:45.153Z,64.90
2019-04-23T09:13:45.071Z,66.10
2019-04-23T09:15:44.991Z,67.20
2019-04-23T09:18:15.842Z,68.20
2019-04-23T09:20:37.848Z,67.00
2019-04-23T09:23:13.098Z,63.70
2019-04-23T09:25:47.797Z,61.90
2019-04-23T09:33:28.743Z,58.50
2019-04-23T09:36:08.333Z,57.80
2019-04-23T09:38:39.662Z,58.00
2019-04-23T09:43:50.148Z,54.40
2019-04-23T09:51:25.453Z,52.90
2019-04-23T09:53:56.658Z,54.00
2019-04-23T09:56:22.336Z,54.30
2019-04-23T09:58:52.161Z,52.60
2019-04-23T10:03:46.328Z,52.00
2019-04-23T10:06:10.646Z,52.50
2019-04-23T10:08:40.237Z,51.50
2019-04-23T10:11:07.445Z,50.60
2019-04-23T10:13:36.425Z,51.10
2019-04-23T10:16:06.901Z,51.00
2019-04-23T10:18:35.353Z,48.90
2019-04-23T10:21:05.500Z,47.80
2019-04-23T10:23:34.204Z,47.60
2019-04-23T10:26:03.860Z,46.70
2019-04-23T10:28:49.764Z,46.90
2019-04-23T10:31:18.738Z,46.70
2019-04-23T10:33:48.241Z,47.70
2019-04-23T10:36:21.068Z,48.00
2019-04-23T10:38:54.012Z,47.00
2019-04-23T10:41:18.226Z,47.50
2019-04-23T10:43:52.209Z,48.10
2019-04-23T10:47:02.759Z,47.90
2019-04-23T10:52:13.369Z,49.90
2019-04-23T10:54:43.372Z,50.90
2019-04-23T10:57:13.723Z,48.20
2019-04-23T10:59:43.329Z,49.50
2019-04-23T11:02:35.026Z,48.60
2019-04-23T11:04:54.423Z,47.40
2019-04-23T11:07:28.711Z,49.90
2019-04-23T11:09:55.832Z,47.90
2019-04-23T11:15:22.139Z,47.00
2019-04-23T11:17:49.110Z,46.60
2019-04-23T11:20:15.102Z,46.80
2019-04-23T11:25:20.424Z,46.10
2019-04-23T11:27:43.594Z,47.70
2019-04-23T11:30:19.124Z,48.00
2019-04-23T11:32:54.307Z,47.00
2019-04-23T11:40:19.980Z,45.70
2019-04-23T11:42:42.789Z,45.90
2019-04-23T11:45:26.013Z,46.10
2019-04-23T11:50:25.940Z,44.60
2019-04-23T11:52:56.378Z,44.20
2019-04-23T11:55:31.001Z,44.70
2019-04-23T12:03:07.713Z,46.20
2019-04-23T12:05:58.268Z,45.50
2019-04-23T12:08:30.080Z,43.10
2019-04-23T12:11:01.292Z,41.90
2019-04-23T12:13:21.283Z,39.70
2019-04-23T12:15:51.796Z,38.10
2019-04-23T12:18:16.993Z,39.10
2019-04-23T12:21:04.096Z,38.20
2019-04-23T12:25:52.747Z,36.20
2019-04-23T12:28:20.560Z,35.80
2019-04-23T12:30:50.656Z,36.20
2019-04-23T12:33:30.172Z,36.30
2019-04-23T12:35:49.994Z,35.90
2019-04-23T12:38:27.319Z,38.20
2019-04-23T12:40:55.943Z,40.20
2019-04-23T12:43:40.601Z,42.70
2019-04-23T12:45:56.817Z,44.80
2019-04-23T12:48:42.101Z,46.80
2019-04-23T12:51:26.889Z,45.90
2019-04-23T12:53:33.639Z,46.90
2019-04-23T12:56:05.377Z,48.50
2019-04-23T12:58:41.543Z,47.90
2019-04-23T13:00:59.052Z,48.10
2019-04-23T13:03:34.095Z,47.80
2019-04-23T13:06:02.850Z,48.10
2019-04-23T13:11:07.170Z,48.30
2019-04-23T13:16:12.956Z,47.80
2019-04-23T13:18:41.444Z,47.30
2019-04-23T13:21:36.342Z,48.30
2019-04-23T13:26:04.061Z,49.00
2019-04-23T13:28:45.239Z,49.20
2019-04-23T13:31:12.483Z,48.90
2019-04-23T13:36:18.777Z,49.50
2019-04-23T13:38:41.860Z,48.60
2019-04-23T13:41:23.372Z,49.10
2019-04-23T13:43:42.615Z,49.30
2019-04-23T13:46:13.952Z,49.90
2019-04-23T13:48:44.942Z,50.30
2019-04-23T13:51:22.431Z,50.60
2019-04-23T13:53:49.603Z,49.90
2019-04-23T13:59:09.543Z,50.30
2019-04-23T14:01:25.835Z,49.10
2019-04-23T14:03:48.260Z,49.10
2019-04-23T14:06:25.065Z,49.50
2019-04-23T14:08:55.200Z,49.90
2019-04-23T14:13:59.268Z,50.80
2019-04-23T14:16:28.939Z,50.50
2019-04-23T14:28:44.841Z,50.80
2019-04-23T14:31:17.311Z,50.80
2019-04-23T14:34:03.566Z,50.80
2019-04-23T14:41:23.374Z,51.10
2019-04-23T14:51:32.090Z,50.70
2019-04-23T14:56:22.274Z,51.80
2019-04-23T14:59:07.070Z,52.00
2019-04-23T15:03:49.139Z,54.20
2019-04-23T15:06:36.094Z,52.90
2019-04-23T15:09:04.268Z,53.10
2019-04-23T15:13:53.911Z,53.80
2019-04-23T15:16:31.639Z,53.30
2019-04-23T15:19:22.089Z,53.70
2019-04-23T15:24:15.675Z,54.60
2019-04-23T15:28:45.455Z,54.50
2019-04-23T15:31:41.227Z,54.80
2019-04-23T15:34:18.899Z,54.70
2019-04-23T15:39:19.431Z,54.80
2019-04-23T15:44:08.557Z,56.00
2019-04-23T15:46:41.158Z,56.40
2019-04-23T15:49:14.796Z,55.90
2019-04-23T15:51:48.046Z,56.30
2019-04-23T15:54:13.759Z,56.50
2019-04-23T15:56:40.912Z,56.40
2019-04-23T16:01:37.675Z,57.30
2019-04-23T16:03:47.134Z,57.30
2019-04-23T16:06:19.021Z,57.30
2019-04-23T16:09:09.706Z,57.30
2019-04-23T16:11:45.216Z,58.10
2019-04-23T16:16:45.434Z,60.40
2019-04-23T16:19:22.031Z,60.40
2019-04-23T16:21:59.015Z,60.40
2019-04-23T16:24:18.009Z,60.20
2019-04-23T16:26:55.347Z,61.80
2019-04-23T16:29:46.064Z,61.00
2019-04-23T16:31:45.321Z,62.30
2019-04-23T16:37:00.249Z,61.40
2019-04-23T16:39:21.996Z,60.80
2019-04-23T16:42:01.957Z,60.90
2019-04-23T16:47:02.617Z,61.90
2019-04-23T16:49:38.726Z,62.40
2019-04-23T16:52:03.566Z,62.50
2019-04-23T16:54:31.397Z,63.00
2019-04-23T16:59:35.391Z,61.70
2019-04-23T17:02:11.173Z,61.90
2019-04-23T17:04:31.189Z,61.90
2019-04-23T17:07:03.718Z,61.80
2019-04-23T17:12:07.705Z,61.60
2019-04-23T17:14:33.011Z,61.40
2019-04-23T17:16:53.311Z,61.50
2019-04-23T17:22:04.553Z,61.50
2019-04-23T17:27:08.544Z,61.60
2019-04-23T17:29:38.406Z,62.20
2019-04-23T17:32:05.634Z,61.70
2019-04-23T17:37:21.698Z,61.30
2019-04-23T17:40:03.550Z,61.30
2019-04-23T17:42:37.395Z,61.50
2019-04-23T17:45:24.444Z,61.50
2019-04-23T17:47:52.361Z,61.60
2019-04-23T17:50:26.880Z,62.10
2019-04-23T17:52:51.054Z,62.20
2019-04-23T17:55:20.114Z,62.60
2019-04-23T17:57:43.584Z,62.60
2019-04-23T18:02:55.377Z,63.60
2019-04-23T18:05:25.169Z,63.70
2019-04-23T18:07:59.497Z,63.60
2019-04-23T18:12:51.711Z,64.40
2019-04-23T18:15:24.099Z,63.50
2019-04-23T18:17:54.741Z,63.50
2019-04-23T18:20:58.378Z,63.30
2019-04-23T18:23:10.010Z,63.50
2019-04-23T18:25:45.124Z,63.30
2019-04-23T18:28:10.410Z,63.50
2019-04-23T18:31:13.764Z,63.60
2019-04-23T18:36:08.003Z,63.30
2019-04-23T18:38:50.068Z,63.30
2019-04-23T18:41:26.168Z,63.30
2019-04-23T18:43:51.015Z,63.00
2019-04-23T18:46:30.582Z,63.30
2019-04-23T18:51:07.789Z,63.80
2019-04-23T18:53:52.683Z,63.00
2019-04-23T18:58:54.727Z,63.70
2019-04-23T19:03:55.596Z,63.60
2019-04-23T19:09:13.620Z,63.90
2019-04-23T19:12:09.247Z,64.10
2019-04-23T19:17:36.058Z,64.70
2019-04-23T19:24:40.557Z,64.70
2019-04-23T19:29:48.014Z,65.50
2019-04-23T19:37:06.065Z,66.00
2019-04-23T19:39:40.228Z,66.40
2019-04-23T19:42:17.933Z,66.70
2019-04-23T19:47:11.701Z,66.70
2019-04-23T19:49:38.913Z,67.00
2019-04-23T19:52:04.835Z,67.20
2019-04-23T19:57:17.849Z,67.60
2019-04-23T19:59:44.500Z,67.90
2019-04-23T20:02:22.844Z,68.00
2019-04-23T20:04:47.233Z,68.00
2019-04-23T20:09:50.957Z,67.90
2019-04-23T20:12:28.288Z,67.90
2019-04-23T20:14:50.498Z,68.30
2019-04-23T20:17:31.830Z,68.50
2019-04-23T20:19:44.839Z,68.80
2019-04-23T20:27:18.010Z,70.30
2019-04-23T20:30:04.856Z,70.40
2019-04-23T20:37:25.681Z,70.60
2019-04-23T20:39:50.805Z,71.60
2019-04-23T20:44:55.775Z,72.50
2019-04-23T20:47:15.916Z,72.90
2019-04-23T20:49:48.039Z,73.40
2019-04-23T20:52:30.664Z,73.70
2019-04-23T21:00:06.749Z,74.90
2019-04-23T21:07:54.362Z,77.30
2019-04-23T21:20:28.352Z,78.70
2019-04-23T21:22:59.103Z,78.50
2019-04-23T21:25:14.691Z,79.10
2019-04-23T21:27:55.454Z,78.20
2019-04-23T21:30:48.557Z,77.60
2019-04-23T21:33:12.795Z,77.30
2019-04-23T21:38:47.561Z,77.20
2019-04-23T21:43:59.233Z,77.70
2019-04-23T21:46:14.563Z,77.40
2019-04-23T21:48:57.818Z,77.60
2019-04-23T21:51:09.601Z,76.70
2019-04-23T21:53:40.548Z,76.30
2019-04-23T21:56:08.562Z,76.00
2019-04-23T21:58:49.581Z,75.40
2019-04-23T22:01:21.350Z,75.80
2019-04-23T22:04:05.186Z,74.50
2019-04-23T22:06:22.269Z,74.50
2019-04-23T22:08:52.450Z,74.20
2019-04-23T22:11:53.755Z,74.20
2019-04-23T22:13:58.310Z,74.30
2019-04-23T22:21:20.874Z,74.40
2019-04-23T22:23:58.291Z,74.10
2019-04-23T22:26:23.962Z,73.80
2019-04-23T22:28:57.773Z,73.80
2019-04-23T22:31:18.691Z,73.80
2019-04-23T22:33:53.398Z,73.90
2019-04-23T22:36:20.994Z,73.90
2019-04-23T22:38:51.114Z,74.10
2019-04-23T22:41:16.238Z,74.60
2019-04-23T22:44:02.669Z,74.40
2019-04-23T22:46:29.747Z,75.20
2019-04-23T22:49:06.285Z,74.60
2019-04-23T22:54:02.676Z,74.00
2019-04-23T22:56:45.146Z,74.10
2019-04-23T22:59:08.048Z,74.30
2019-04-23T23:01:26.053Z,75.20
2019-04-23T23:03:59.297Z,74.30
2019-04-23T23:06:33.092Z,74.40
2019-04-23T23:09:12.133Z,74.30
2019-04-23T23:11:22.544Z,74.30
2019-04-23T23:14:09.615Z,74.60
2019-04-23T23:16:28.374Z,74.20
2019-04-23T23:19:07.128Z,74.50
2019-04-23T23:21:30.826Z,74.70
2019-04-23T23:23:59.658Z,74.80
2019-04-23T23:26:31.718Z,75.10
2019-04-23T23:28:55.823Z,75.30
2019-04-23T23:31:30.150Z,75.30
2019-04-23T23:34:04.768Z,75.30
2019-04-23T23:36:28.417Z,75.90
2019-04-23T23:39:14.130Z,76.10
2019-04-23T23:41:35.694Z,76.20
2019-04-23T23:44:20.821Z,76.80
2019-04-23T23:46:35.257Z,76.20
2019-04-23T23:51:36.466Z,76.30
2019-04-23T23:56:30.429Z,76.20
